SACO/COR METAR and TAF weather

Enter ICAO airport designator
Station Type Date Time Source
SACO METAR 2020/11/25 23:00 UTC NOAA

SACO 252300Z 12008KT CAVOK 24/17 Q1010 NOSIG


Station Type Date Time Source
SACO Decoded METAR 2020/11/25 23:00 UTC NOAA

Cordoba Aerodrome, Argentina (SACO) 31-19S 064-13W 474M
Nov 25, 2020 - 06:00 PM EST / 2020.11.25 2300 UTC
Wind: from the ESE (120 degrees) at 9 MPH (8 KT):0
Visibility: greater than 7 mile(s):0
Temperature: 75 F (24 C)
Dew Point: 62 F (17 C)
Relative Humidity: 64%
Pressure (altimeter): 29.83 in. Hg (1010 hPa)
ob: SACO 252300Z 12008KT CAVOK 24/17 Q1010 NOSIG
cycle: 23

Station Type Date Time Source
SACO TAF 2020/11/25 18:09 UTC NOAA

TAF TAF SACO 251700Z 2518/2618 14015KT 9999 SCT040 TX25/2618Z TN18/2610Z PROB40 FEW050CB
BECMG 2600/2602 27005KT 9999 BKN030
BECMG 2608/2610 18025G35KT 5000 TSRA BKN020 FEW040CB
TEMPO 8000 SHRA

Example: see airport list